Time;durP1;ratioP1;P1;durP2;ratioP2;P2;SDS_P1;SDS_P2;PMS_P1;PMS_P2;Temp;Humidity;BMP_temperature;BMP_pressure;BME280_temperature;BME280_humidity;BME280_pressure;Samples;Min_cycle;Max_cycle;Signal;HPM_P1;HPM_P2
2022/10/31 00:01:14;;;;;;;14.23;3.60;;;;;;;17.29;62.51;98650.66;5279799;27;20058;-81
2022/10/31 00:03:41;;;;;;;29.87;4.12;;;;;;;17.34;62.39;98648.62;5299591;27;20061;-81
2022/10/31 00:06:07;;;;;;;33.08;3.80;;;;;;;17.39;62.92;98653.56;5299318;27;20053;-81
2022/10/31 00:08:34;;;;;;;18.92;4.03;;;;;;;18.08;60.62;98644.94;5299151;27;20053;-81
2022/10/31 00:11:01;;;;;;;14.45;3.20;;;;;;;18.77;57.84;98638.69;5299426;27;20084;-81
2022/10/31 00:13:28;;;;;;;18.00;3.50;;;;;;;18.00;60.44;98642.81;5299422;27;20446;-81
2022/10/31 00:15:55;;;;;;;18.40;3.50;;;;;;;17.91;60.90;98648.59;5279534;27;20746;-81
2022/10/31 00:18:22;;;;;;;24.35;4.00;;;;;;;17.70;61.98;98653.38;5299388;27;20134;-81
2022/10/31 00:20:51;;;;;;;52.25;5.07;;;;;;;18.06;61.11;98660.69;5299441;27;20057;-81
2022/10/31 00:23:18;;;;;;;23.33;4.25;;;;;;;17.31;63.74;98654.03;5279570;27;20313;-81
2022/10/31 00:25:45;;;;;;;22.70;3.70;;;;;;;17.44;63.10;98649.75;5299277;27;20052;-81
2022/10/31 00:28:12;;;;;;;35.20;3.92;;;;;;;17.62;62.46;98650.38;5299397;27;20142;-81
2022/10/31 00:30:39;;;;;;;18.12;3.45;;;;;;;17.88;61.62;98652.25;5298957;27;20115;-81
2022/10/31 00:33:06;;;;;;;30.08;4.10;;;;;;;17.40;63.26;98655.25;5299361;27;20061;-81
2022/10/31 00:35:33;;;;;;;24.12;3.58;;;;;;;17.50;63.19;98657.19;5298996;27;20052;-81
2022/10/31 00:37:59;;;;;;;27.13;3.90;;;;;;;17.90;61.63;98657.38;5299551;27;20049;-81
2022/10/31 00:40:26;;;;;;;31.08;3.60;;;;;;;18.01;61.36;98659.31;5300266;27;20061;-81
2022/10/31 00:42:53;;;;;;;29.20;3.72;;;;;;;17.51;62.79;98658.87;5300061;27;20146;-81
2022/10/31 00:45:20;;;;;;;21.35;3.17;;;;;;;18.11;60.52;98650.78;5300014;27;20057;-81
2022/10/31 00:47:47;;;;;;;25.10;3.47;;;;;;;18.24;60.32;98648.22;5280632;27;20444;-81
2022/10/31 00:50:14;;;;;;;24.55;3.87;;;;;;;17.43;62.86;98661.09;5299838;27;20142;-81
2022/10/31 00:52:41;;;;;;;27.85;3.53;;;;;;;17.20;63.33;98653.81;5300261;27;20071;-81
2022/10/31 00:55:08;;;;;;;10.13;3.08;;;;;;;17.65;62.26;98652.78;5299988;27;20067;-81
2022/10/31 00:57:35;;;;;;;21.98;3.80;;;;;;;17.26;63.41;98654.31;5299867;27;20053;-81
2022/10/31 01:00:02;;;;;;;19.77;3.45;;;;;;;17.67;62.59;98656.16;5300179;27;20075;-81
2022/10/31 01:02:29;;;;;;;17.67;3.08;;;;;;;18.17;60.93;98660.81;5300196;27;20057;-81
2022/10/31 01:04:56;;;;;;;15.15;3.20;;;;;;;18.23;60.06;98649.16;5299630;27;20052;-81
2022/10/31 01:07:23;;;;;;;21.75;3.22;;;;;;;18.46;59.13;98648.50;5300201;27;20056;-81
2022/10/31 01:09:50;;;;;;;14.80;3.05;;;;;;;18.08;59.99;98651.00;5280719;27;20076;-81
2022/10/31 01:12:17;;;;;;;12.55;3.10;;;;;;;18.23;59.63;98646.56;5299449;27;20510;-81
2022/10/31 01:14:45;;;;;;;15.15;2.90;;;;;;;17.86;61.50;98653.25;5299793;27;20049;-81
2022/10/31 01:17:13;;;;;;;21.52;3.20;;;;;;;17.78;61.47;98647.69;5300031;27;20392;-81
2022/10/31 01:19:40;;;;;;;14.20;3.00;;;;;;;17.79;61.66;98645.00;5299697;27;20057;-81
2022/10/31 01:22:06;;;;;;;14.73;3.15;;;;;;;18.00;61.14;98640.19;5300127;27;20460;-81
2022/10/31 01:24:33;;;;;;;33.67;3.62;;;;;;;18.09;61.03;98630.94;5299967;27;20438;-81
2022/10/31 01:27:00;;;;;;;17.17;3.03;;;;;;;17.76;61.61;98637.37;5299717;27;20123;-81
2022/10/31 01:29:27;;;;;;;23.87;3.58;;;;;;;18.03;61.24;98637.37;5300016;27;20076;-81
2022/10/31 01:31:54;;;;;;;29.45;3.60;;;;;;;17.52;62.45;98631.00;5300070;27;20396;-81
2022/10/31 01:34:21;;;;;;;33.55;4.53;;;;;;;17.97;61.03;98627.34;5299423;27;20064;-81
2022/10/31 01:36:50;;;;;;;30.83;3.20;;;;;;;17.90;61.13;98626.03;5299907;27;20079;-81
2022/10/31 01:39:22;;;;;;;26.00;3.47;;;;;;;17.83;61.49;98624.75;5299743;27;20099;-81
2022/10/31 01:41:51;;;;;;;52.65;4.10;;;;;;;17.74;62.15;98630.53;5300077;27;20062;-81
2022/10/31 01:44:18;;;;;;;40.33;4.12;;;;;;;17.78;61.86;98625.03;5299803;27;20049;-81
2022/10/31 01:47:06;;;;;;;47.75;4.32;;;;;;;17.87;61.34;98627.09;5299604;27;20049;-81
2022/10/31 01:49:40;;;;;;;37.22;3.72;;;;;;;17.54;62.52;98616.09;5299865;27;20076;-81
2022/10/31 01:52:37;;;;;;;49.35;4.05;;;;;;;17.56;62.91;98620.31;5300083;27;20742;-81
2022/10/31 01:55:26;;;;;;;39.38;4.07;;;;;;;16.43;66.96;98611.41;5298965;27;20053;-81
2022/10/31 01:57:59;;;;;;;43.20;4.30;;;;;;;17.23;65.41;98612.78;5280918;27;20044;-81
2022/10/31 02:00:27;;;;;;;41.45;4.07;;;;;;;17.27;65.22;98614.25;5280469;27;20077;-81
2022/10/31 02:02:55;;;;;;;35.38;4.10;;;;;;;17.45;64.94;98617.53;5299991;27;20070;-81
2022/10/31 02:05:25;;;;;;;44.40;4.03;;;;;;;18.10;61.76;98611.72;5299758;27;20060;-81
2022/10/31 02:08:02;;;;;;;37.42;4.07;;;;;;;17.93;61.77;98618.00;5280091;27;20049;-81
2022/10/31 02:10:32;;;;;;;33.33;3.50;;;;;;;17.83;62.25;98606.47;5299935;27;20396;-81
2022/10/31 02:13:01;;;;;;;33.97;3.95;;;;;;;17.81;61.45;98605.75;5280158;27;20126;-81
2022/10/31 02:15:30;;;;;;;32.15;3.60;;;;;;;17.68;61.96;98605.66;5299388;27;20567;-81
2022/10/31 02:17:58;;;;;;;37.92;3.85;;;;;;;17.67;61.52;98603.97;5299794;27;20049;-81
2022/10/31 02:20:29;;;;;;;17.55;3.33;;;;;;;17.33;62.50;98608.69;5280563;27;20065;-81
2022/10/31 02:23:05;;;;;;;21.50;3.15;;;;;;;17.47;61.50;98605.22;5280108;27;20411;-81
2022/10/31 02:25:51;;;;;;;26.48;3.60;;;;;;;17.40;61.27;98596.06;5299762;27;20057;-81
2022/10/31 02:28:31;;;;;;;10.40;2.87;;;;;;;17.08;62.56;98587.62;5299525;27;20049;-81
2022/10/31 02:31:57;;;;;;;14.60;2.78;;;;;;;17.03;61.96;98587.91;5280532;27;20118;-81
2022/10/31 02:34:36;;;;;;;15.90;2.62;;;;;;;16.81;63.22;98584.06;5299413;27;20065;-81
2022/10/31 02:37:13;;;;;;;24.58;2.97;;;;;;;16.92;62.16;98579.91;5298981;27;20083;-81
2022/10/31 02:39:50;;;;;;;20.58;3.15;;;;;;;16.97;62.10;98587.44;5280650;27;20324;-81
2022/10/31 02:42:41;;;;;;;18.85;2.78;;;;;;;16.86;62.24;98593.28;5299581;27;20061;-81
2022/10/31 02:45:13;;;;;;;19.67;2.90;;;;;;;16.65;62.51;98592.75;5299570;27;20061;-81
2022/10/31 02:47:41;;;;;;;15.20;2.92;;;;;;;16.41;62.98;98599.41;5299759;27;20116;-81
2022/10/31 02:50:25;;;;;;;11.20;2.72;;;;;;;15.90;65.04;98601.41;5299349;27;20049;-81
2022/10/31 02:52:53;;;;;;;16.52;3.17;;;;;;;16.31;63.09;98595.62;5299946;27;20061;-81
2022/10/31 02:55:23;;;;;;;15.70;3.00;;;;;;;16.38;63.03;98597.81;5299676;27;20057;-81
2022/10/31 02:57:54;;;;;;;18.35;3.50;;;;;;;16.19;63.21;98605.81;5299332;27;20059;-81
2022/10/31 03:00:21;;;;;;;14.10;2.90;;;;;;;16.21;63.31;98603.12;5280479;27;20392;-81
2022/10/31 03:03:03;;;;;;;11.43;3.00;;;;;;;16.30;62.48;98607.81;5299792;27;20072;-81
2022/10/31 03:05:58;;;;;;;14.98;3.00;;;;;;;16.06;63.07;98601.41;5279996;27;20061;-81
2022/10/31 03:08:57;;;;;;;7.62;2.87;;;;;;;15.61;65.04;98610.81;5299983;27;20098;-81
2022/10/31 03:11:29;;;;;;;8.57;2.62;;;;;;;16.23;62.76;98609.09;5298756;27;20359;-81
2022/10/31 03:13:58;;;;;;;12.02;2.80;;;;;;;16.59;60.95;98613.97;5280495;27;20391;-81
2022/10/31 03:16:43;;;;;;;12.80;2.67;;;;;;;16.33;61.73;98612.84;5299432;27;20053;-80
2022/10/31 03:19:26;;;;;;;51.63;4.37;;;;;;;16.64;60.65;98611.09;5279987;27;20415;-81
2022/10/31 03:22:16;;;;;;;21.77;3.28;;;;;;;15.84;63.86;98619.94;5280377;27;20056;-81
2022/10/31 03:24:43;;;;;;;38.03;3.80;;;;;;;15.82;64.12;98617.44;5299307;27;20061;-81
2022/10/31 03:27:13;;;;;;;12.45;3.37;;;;;;;15.93;63.75;98619.44;5280444;27;20110;-81
2022/10/31 03:29:40;;;;;;;20.35;3.33;;;;;;;16.21;62.78;98610.94;5280539;27;20050;-81
2022/10/31 03:32:10;;;;;;;40.65;4.53;;;;;;;16.15;63.11;98617.31;5279910;27;20056;-81
2022/10/31 03:34:40;;;;;;;9.88;2.80;;;;;;;16.25;63.27;98620.25;5299580;27;20072;-81
2022/10/31 03:37:10;;;;;;;9.60;2.92;;;;;;;16.27;63.15;98623.63;5280135;27;20061;-81
2022/10/31 03:39:39;;;;;;;26.45;3.87;;;;;;;16.83;60.96;98629.13;5261932;27;20430;-81
2022/10/31 03:42:09;;;;;;;19.17;3.33;;;;;;;16.99;60.26;98622.88;5280162;27;20060;-81
2022/10/31 03:44:38;;;;;;;20.73;3.37;;;;;;;16.90;60.12;98606.97;5299612;27;20400;-81
2022/10/31 03:47:05;;;;;;;13.93;3.00;;;;;;;16.63;61.58;98618.06;5280069;27;20061;-81
2022/10/31 03:49:32;;;;;;;19.50;3.40;;;;;;;16.87;60.89;98618.41;5299887;27;20098;-81
2022/10/31 03:52:29;;;;;;;25.58;3.65;;;;;;;17.19;59.40;98613.03;5280547;27;20108;-81
2022/10/31 03:55:31;;;;;;;55.47;5.03;;;;;;;16.69;61.13;98622.09;5280433;27;20403;-81
2022/10/31 03:58:13;;;;;;;33.50;4.30;;;;;;;17.23;59.81;98619.75;5299733;27;20033;-81
2022/10/31 04:00:42;;;;;;;38.28;3.83;;;;;;;17.10;59.19;98611.81;5280174;27;20061;-81
2022/10/31 04:03:25;;;;;;;10.50;3.17;;;;;;;16.84;60.22;98613.37;5280530;27;20046;-81
2022/10/31 04:05:55;;;;;;;20.80;3.10;;;;;;;16.64;61.04;98609.31;5280477;27;20065;-81
2022/10/31 04:08:26;;;;;;;12.00;2.78;;;;;;;16.58;61.48;98609.66;5280404;27;20065;-81
2022/10/31 04:10:54;;;;;;;26.35;3.67;;;;;;;16.46;61.52;98608.59;5280141;27;20053;-81
2022/10/31 04:13:25;;;;;;;30.52;3.95;;;;;;;17.26;59.09;98612.59;5299662;27;20049;-81
2022/10/31 04:15:54;;;;;;;11.35;2.87;;;;;;;16.66;60.94;98611.81;5299448;27;20060;-81
2022/10/31 04:18:22;;;;;;;20.48;3.58;;;;;;;16.70;60.78;98615.97;5280210;27;20075;-81
2022/10/31 04:20:59;;;;;;;9.82;2.62;;;;;;;17.55;57.30;98612.56;5299233;27;20398;-81
2022/10/31 04:23:27;;;;;;;24.85;3.65;;;;;;;16.83;59.96;98619.53;5299978;27;20371;-81
2022/10/31 04:25:54;;;;;;;7.85;3.00;;;;;;;17.49;57.55;98620.75;5280373;27;20065;-81
2022/10/31 04:28:21;;;;;;;7.00;2.87;;;;;;;16.86;59.40;98614.13;5299358;27;20065;-81
2022/10/31 04:30:48;;;;;;;33.42;4.47;;;;;;;17.02;58.95;98608.84;5280371;27;20053;-81
2022/10/31 04:33:15;;;;;;;18.67;3.72;;;;;;;17.25;57.96;98618.72;5299844;27;20071;-81
2022/10/31 04:35:41;;;;;;;11.25;3.05;;;;;;;17.00;58.50;98616.75;5299232;27;20068;-81
2022/10/31 04:38:08;;;;;;;17.98;4.10;;;;;;;17.43;57.07;98613.31;5299699;27;20075;-81
2022/10/31 04:40:35;;;;;;;20.20;4.90;;;;;;;17.16;57.52;98611.47;5299790;27;20045;-81
2022/10/31 04:43:02;;;;;;;15.57;5.68;;;;;;;16.33;60.51;98610.25;5299384;27;20049;-81
2022/10/31 04:45:30;;;;;;;18.12;5.30;;;;;;;16.12;61.58;98614.06;5299457;27;20073;-81
2022/10/31 04:47:56;;;;;;;18.70;5.75;;;;;;;16.25;60.87;98616.81;5299465;27;20067;-81
2022/10/31 04:50:24;;;;;;;12.68;4.45;;;;;;;16.27;60.91;98617.56;5299087;27;20400;-81
2022/10/31 04:52:51;;;;;;;14.45;5.57;;;;;;;16.20;61.52;98622.28;5299459;27;20049;-81
2022/10/31 04:55:18;;;;;;;17.33;5.15;;;;;;;16.20;61.68;98617.09;5299200;27;20061;-81
2022/10/31 04:57:46;;;;;;;16.55;4.28;;;;;;;16.96;59.42;98627.47;5299298;27;20072;-81
2022/10/31 05:00:15;;;;;;;8.13;3.30;;;;;;;17.15;58.25;98619.38;5299184;27;20192;-81
2022/10/31 05:02:49;;;;;;;10.25;3.50;;;;;;;17.58;56.21;98626.25;5298920;27;20102;-81
2022/10/31 05:05:17;;;;;;;28.00;4.78;;;;;;;16.78;58.82;98625.00;5299190;27;20117;-81
2022/10/31 05:07:46;;;;;;;13.18;3.62;;;;;;;16.64;59.71;98621.50;5299044;27;20069;-81
2022/10/31 05:10:16;;;;;;;46.20;5.57;;;;;;;16.99;58.74;98625.50;5298909;27;20053;-81
2022/10/31 05:12:47;;;;;;;9.18;3.70;;;;;;;17.29;57.86;98624.59;5279509;27;20097;-81
2022/10/31 05:15:15;;;;;;;13.90;3.90;;;;;;;16.68;59.27;98626.47;5299022;27;20061;-81
2022/10/31 05:17:42;;;;;;;11.57;3.80;;;;;;;16.75;59.50;98619.97;5298831;27;20060;-81
2022/10/31 05:20:11;;;;;;;34.00;4.72;;;;;;;16.57;59.87;98622.78;5299280;27;20048;-81
2022/10/31 05:22:44;;;;;;;22.77;4.10;;;;;;;16.65;60.43;98623.19;5299551;27;20105;-81
2022/10/31 05:25:12;;;;;;;18.45;4.00;;;;;;;16.81;59.97;98626.59;5299736;27;20363;-81
2022/10/31 05:27:42;;;;;;;17.75;3.80;;;;;;;16.51;60.79;98618.78;5300182;27;20053;-81
2022/10/31 05:30:11;;;;;;;11.32;3.20;;;;;;;16.47;61.04;98623.31;5300758;27;20067;-81
2022/10/31 05:32:42;;;;;;;31.92;4.40;;;;;;;16.40;61.30;98619.41;5299861;27;20094;-81
2022/10/31 05:35:15;;;;;;;11.50;3.22;;;;;;;16.38;61.36;98626.47;5300043;27;20396;-81
2022/10/31 05:37:41;;;;;;;13.02;3.50;;;;;;;16.64;60.78;98626.72;5299743;27;20060;-81
2022/10/31 05:40:10;;;;;;;10.68;3.12;;;;;;;16.59;60.96;98629.59;5300336;27;20533;-81
2022/10/31 05:42:41;;;;;;;54.38;6.00;;;;;;;16.66;60.98;98628.28;5300246;27;20045;-81
2022/10/31 05:45:10;;;;;;;12.88;3.42;;;;;;;16.88;60.54;98637.50;5299753;27;20107;-81
2022/10/31 05:47:37;;;;;;;9.05;3.28;;;;;;;16.77;60.81;98644.16;5300118;27;20530;-81
2022/10/31 05:50:04;;;;;;;14.48;3.60;;;;;;;16.61;61.19;98645.97;5300230;27;20064;-81
2022/10/31 05:52:31;;;;;;;19.00;3.58;;;;;;;16.62;61.30;98657.22;5300137;27;20042;-81
2022/10/31 05:54:58;;;;;;;7.93;2.97;;;;;;;16.64;61.32;98657.97;5300015;27;20025;-81
2022/10/31 05:57:25;;;;;;;15.20;3.12;;;;;;;17.09;59.73;98659.69;5299971;27;20060;-81
2022/10/31 05:59:55;;;;;;;20.55;3.65;;;;;;;16.83;60.76;98656.03;5299678;27;20053;-81
2022/10/31 06:02:22;;;;;;;16.83;3.65;;;;;;;17.15;59.89;98658.50;5300019;27;20060;-81
2022/10/31 06:04:48;;;;;;;10.82;3.33;;;;;;;17.26;59.46;98664.75;5299845;27;20080;-81
2022/10/31 06:07:15;;;;;;;7.72;3.10;;;;;;;17.25;59.73;98668.28;5299526;27;20053;-81
2022/10/31 06:09:42;;;;;;;18.58;3.83;;;;;;;17.53;59.04;98674.41;5300025;27;20049;-81
2022/10/31 06:12:09;;;;;;;12.07;3.28;;;;;;;18.18;56.70;98672.97;5299643;27;20069;-81
2022/10/31 06:14:36;;;;;;;9.43;3.20;;;;;;;17.47;59.52;98686.09;5299796;27;20132;-81
2022/10/31 06:17:03;;;;;;;9.77;3.12;;;;;;;17.89;57.68;98681.81;5299858;27;20052;-81
2022/10/31 06:19:30;;;;;;;14.20;3.30;;;;;;;17.62;58.75;98684.31;5300095;27;20050;-81
2022/10/31 06:21:57;;;;;;;26.52;3.90;;;;;;;17.48;59.63;98687.75;5280125;27;20110;-81
2022/10/31 06:24:24;;;;;;;26.83;4.05;;;;;;;17.78;58.63;98685.09;5299713;27;20084;-81
2022/10/31 06:26:50;;;;;;;32.45;4.87;;;;;;;18.35;56.73;98684.94;5299482;27;20320;-81
2022/10/31 06:29:17;;;;;;;24.75;4.03;;;;;;;17.53;59.35;98685.69;5299780;27;20054;-81
2022/10/31 06:31:44;;;;;;;18.08;3.60;;;;;;;17.81;59.39;98687.50;5299831;27;20045;-81
2022/10/31 06:34:11;;;;;;;24.17;3.83;;;;;;;17.53;59.78;98693.53;5299116;27;20054;-81
2022/10/31 06:36:38;;;;;;;40.35;4.70;;;;;;;17.58;60.05;98694.09;5299627;27;20056;-81
2022/10/31 06:39:05;;;;;;;32.97;4.30;;;;;;;17.26;61.06;98692.59;5299807;27;20053;-81
2022/10/31 06:41:32;;;;;;;22.33;3.60;;;;;;;17.24;61.72;98700.50;5299405;27;20328;-81
2022/10/31 06:43:58;;;;;;;25.75;3.90;;;;;;;17.47;61.27;98700.91;5299817;27;20061;-81
2022/10/31 06:46:33;;;;;;;24.42;3.97;;;;;;;16.86;63.11;98694.94;5299816;27;20071;-81
2022/10/31 06:49:00;;;;;;;27.60;4.28;;;;;;;17.69;60.60;98703.91;5299290;27;20057;-81
2022/10/31 06:51:27;;;;;;;30.65;3.97;;;;;;;17.33;61.78;98701.72;5299698;27;20045;-81
2022/10/31 06:53:54;;;;;;;24.80;4.25;;;;;;;17.25;62.18;98698.75;5299738;27;20058;-81
2022/10/31 06:56:21;;;;;;;20.25;3.97;;;;;;;16.92;63.49;98710.22;5299142;27;20058;-81
2022/10/31 06:58:48;;;;;;;39.20;4.35;;;;;;;17.49;62.21;98704.25;5299798;27;20064;-81
2022/10/31 07:01:14;;;;;;;23.73;3.95;;;;;;;17.51;62.14;98707.59;5299718;27;20048;-81
2022/10/31 07:03:41;;;;;;;18.60;3.75;;;;;;;16.85;64.18;98703.69;5299425;27;20053;-81
2022/10/31 07:06:08;;;;;;;18.80;3.45;;;;;;;17.72;61.08;98715.94;5299450;27;20336;-81
2022/10/31 07:08:35;;;;;;;16.55;3.83;;;;;;;17.05;63.90;98715.56;5291295;27;223675;-81
2022/10/31 07:11:02;;;;;;;37.50;4.47;;;;;;;17.36;63.24;98722.41;5299380;27;20060;-81
2022/10/31 07:13:29;;;;;;;23.15;4.15;;;;;;;17.96;60.67;98719.63;5299511;27;20084;-81
2022/10/31 07:16:00;;;;;;;16.75;4.00;;;;;;;17.71;61.59;98714.25;5299030;27;20060;-81
2022/10/31 07:18:28;;;;;;;40.38;4.80;;;;;;;16.65;66.71;98716.97;5299589;27;20188;-81
2022/10/31 07:20:55;;;;;;;22.23;4.45;;;;;;;15.72;70.70;98722.94;5299778;27;20060;-81
2022/10/31 07:23:22;;;;;;;31.67;4.25;;;;;;;16.75;67.51;98719.00;5299273;27;20560;-81
2022/10/31 07:25:55;;;;;;;17.27;3.78;;;;;;;17.26;65.69;98723.88;5299479;27;20065;-81
2022/10/31 07:28:22;;;;;;;25.73;3.92;;;;;;;16.80;67.44;98720.50;5299594;27;20161;-81
2022/10/31 07:30:50;;;;;;;32.30;4.20;;;;;;;16.06;70.62;98729.78;5299172;27;20049;-81
2022/10/31 07:33:17;;;;;;;9.27;3.45;;;;;;;13.55;82.99;98724.78;5299709;27;20057;-81
2022/10/31 07:35:45;;;;;;;10.43;3.70;;;;;;;14.15;80.76;98723.75;5299461;27;20072;-81
2022/10/31 07:38:13;;;;;;;34.72;4.57;;;;;;;13.45;83.15;98720.91;5299212;27;20135;-81
2022/10/31 07:40:41;;;;;;;17.05;4.43;;;;;;;14.20;81.98;98723.53;5299586;27;20388;-81
2022/10/31 07:43:08;;;;;;;27.75;4.82;;;;;;;13.41;85.17;98716.75;5299619;27;20403;-81
2022/10/31 07:45:40;;;;;;;18.33;3.72;;;;;;;13.58;85.24;98720.28;5298766;27;20065;-81
2022/10/31 07:48:07;;;;;;;13.55;3.70;;;;;;;13.74;84.44;98724.81;5280060;27;20101;-81
2022/10/31 07:50:34;;;;;;;19.37;4.22;;;;;;;13.37;85.64;98720.37;5299617;27;20049;-81
2022/10/31 07:53:04;;;;;;;27.73;5.10;;;;;;;12.70;89.99;98719.69;5299246;27;20054;-81
2022/10/31 07:55:31;;;;;;;23.67;4.90;;;;;;;13.69;84.35;98719.81;5299401;27;20402;-81
2022/10/31 07:58:04;;;;;;;25.50;4.30;;;;;;;12.66;90.26;98715.53;5299148;27;20057;-81
2022/10/31 08:00:32;;;;;;;20.75;5.03;;;;;;;11.98;93.39;98718.22;5299518;27;20071;-81
2022/10/31 08:03:10;;;;;;;38.28;4.82;;;;;;;12.41;92.52;98717.41;5299537;27;20057;-81
2022/10/31 08:05:38;;;;;;;41.20;5.47;;;;;;;12.30;92.83;98725.59;5299145;27;20057;-81
2022/10/31 08:08:05;;;;;;;28.12;6.55;;;;;;;12.61;92.91;98724.38;5299479;27;20126;-81
2022/10/31 08:10:33;;;;;;;82.72;7.35;;;;;;;12.63;92.41;98722.56;5299492;27;20042;-81
2022/10/31 08:13:08;;;;;;;38.17;5.85;;;;;;;13.55;89.10;98723.03;5298877;27;20066;-81
2022/10/31 08:15:38;;;;;;;57.40;6.10;;;;;;;13.20;89.65;98715.94;5299414;27;20502;-81
2022/10/31 08:18:14;;;;;;;58.05;6.85;;;;;;;13.27;91.72;98722.53;5299323;27;20061;-81
2022/10/31 08:20:44;;;;;;;112.82;7.93;;;;;;;13.87;88.83;98733.72;5299069;27;20041;-81
2022/10/31 08:23:12;;;;;;;82.57;7.20;;;;;;;15.10;83.57;98721.81;5299422;27;20072;-81
2022/10/31 08:25:39;;;;;;;77.28;6.43;;;;;;;15.60;81.04;98724.41;5299209;27;20065;-81
2022/10/31 08:28:06;;;;;;;87.07;7.57;;;;;;;14.98;83.58;98714.59;5298967;27;20063;-81
2022/10/31 08:30:35;;;;;;;89.65;7.50;;;;;;;15.01;83.81;98715.28;5299326;27;20096;-81
2022/10/31 08:33:13;;;;;;;42.53;5.40;;;;;;;15.91;80.35;98722.78;5298918;27;20057;-81
2022/10/31 08:35:40;;;;;;;163.77;11.90;;;;;;;15.96;80.50;98715.59;5299142;27;20117;-81
2022/10/31 08:38:10;;;;;;;55.38;6.25;;;;;;;14.73;84.97;98720.16;5299148;27;20056;-81
2022/10/31 08:40:37;;;;;;;109.18;8.18;;;;;;;15.10;83.27;98718.31;5298871;27;20045;-81
2022/10/31 08:43:15;;;;;;;68.78;6.70;;;;;;;15.38;82.48;98721.22;5299293;27;20422;-81
2022/10/31 08:45:43;;;;;;;85.53;7.22;;;;;;;16.01;80.29;98721.37;5299259;27;20108;-81
2022/10/31 08:48:15;;;;;;;119.65;8.85;;;;;;;16.09;79.19;98718.38;5279410;27;20063;-81
2022/10/31 08:50:43;;;;;;;90.43;7.12;;;;;;;15.64;81.87;98716.47;5299248;27;20041;-81
2022/10/31 08:53:17;;;;;;;55.95;6.53;;;;;;;16.98;77.82;98715.06;5299200;27;20057;-81
2022/10/31 08:55:46;;;;;;;127.30;8.27;;;;;;;17.32;75.49;98715.69;5298767;27;20060;-81
2022/10/31 08:58:15;;;;;;;112.50;8.68;;;;;;;16.67;77.25;98715.13;5299597;27;20053;-81
2022/10/31 09:00:43;;;;;;;120.15;8.15;;;;;;;17.19;76.71;98719.94;5280644;27;20049;-81
2022/10/31 09:03:18;;;;;;;73.43;7.45;;;;;;;15.95;82.04;98721.72;5299786;27;20057;-81
2022/10/31 09:05:45;;;;;;;98.12;8.05;;;;;;;15.99;82.45;98718.03;5300139;27;20065;-81
2022/10/31 09:08:13;;;;;;;80.57;7.53;;;;;;;17.39;76.92;98722.22;5299649;27;20052;-81
2022/10/31 09:10:42;;;;;;;75.28;7.55;;;;;;;18.18;73.17;98725.22;5300136;27;20536;-81
2022/10/31 09:13:13;;;;;;;87.68;7.82;;;;;;;18.69;71.76;98722.81;5299814;27;20065;-81
2022/10/31 09:15:43;;;;;;;59.10;6.65;;;;;;;18.76;71.32;98724.09;5299597;27;20114;-81
2022/10/31 09:18:11;;;;;;;32.90;5.45;;;;;;;18.78;69.20;98724.00;5300076;27;20400;-81
2022/10/31 09:20:39;;;;;;;35.40;5.57;;;;;;;17.99;72.44;98719.47;5299956;27;20388;-81
2022/10/31 09:23:09;;;;;;;39.15;6.28;;;;;;;16.99;77.28;98721.94;5280343;27;20057;-81
2022/10/31 09:25:37;;;;;;;54.78;6.30;;;;;;;17.15;76.62;98721.91;5280659;27;20061;-81
2022/10/31 09:28:05;;;;;;;71.05;7.47;;;;;;;18.29;72.90;98719.31;5300095;27;20049;-81
2022/10/31 09:30:33;;;;;;;62.08;6.78;;;;;;;18.49;72.18;98720.63;5299674;27;20049;-81
2022/10/31 09:33:09;;;;;;;31.20;5.68;;;;;;;19.39;67.47;98725.16;5300138;27;20061;-81
2022/10/31 09:35:37;;;;;;;26.80;5.62;;;;;;;18.70;70.74;98724.50;5299833;27;20071;-81
2022/10/31 09:38:06;;;;;;;39.55;6.93;;;;;;;18.50;71.14;98733.63;5299534;27;20715;-81
2022/10/31 09:40:44;;;;;;;19.73;5.97;;;;;;;18.66;70.59;98722.19;5300069;27;20045;-81
2022/10/31 09:43:33;;;;;;;40.12;5.80;;;;;;;18.23;72.60;98724.91;5280490;27;20065;-81
2022/10/31 09:46:16;;;;;;;23.52;6.22;;;;;;;17.41;76.43;98729.94;5299830;27;20415;-81
2022/10/31 09:49:02;;;;;;;17.15;5.85;;;;;;;16.79;79.13;98727.47;5280523;27;20526;-81
2022/10/31 09:51:32;;;;;;;15.15;5.47;;;;;;;17.33;77.94;98728.66;5299597;27;20044;-81
2022/10/31 09:54:05;;;;;;;16.45;5.18;;;;;;;17.83;75.19;98731.75;5300098;27;20057;-81
2022/10/31 09:56:32;;;;;;;12.77;4.78;;;;;;;18.48;72.05;98725.00;5299842;27;20056;-81
2022/10/31 09:59:00;;;;;;;23.23;5.35;;;;;;;18.26;72.77;98726.47;5299528;27;20064;-81
2022/10/31 10:01:34;;;;;;;24.30;5.50;;;;;;;19.30;67.87;98724.00;5299916;27;20388;-81
2022/10/31 10:04:12;;;;;;;13.10;5.20;;;;;;;17.61;75.37;98719.16;5299958;27;20455;-81
2022/10/31 10:06:47;;;;;;;15.77;4.97;;;;;;;18.91;70.09;98724.03;5282053;27;20431;-81
2022/10/31 10:09:14;;;;;;;24.73;5.65;;;;;;;18.96;69.85;98722.81;5299497;27;20067;-81
2022/10/31 10:11:55;;;;;;;32.78;6.55;;;;;;;18.15;73.48;98724.53;5299518;27;20050;-81
2022/10/31 10:14:34;;;;;;;11.05;4.90;;;;;;;18.13;74.25;98713.37;5280385;27;20061;-81
2022/10/31 10:17:17;;;;;;;15.98;5.32;;;;;;;18.33;73.56;98725.16;5280499;27;20061;-81
2022/10/31 10:20:12;;;;;;;19.35;5.53;;;;;;;17.40;76.87;98721.28;5280154;27;20426;-81
2022/10/31 10:22:50;;;;;;;17.30;7.07;;;;;;;18.88;71.13;98721.63;5299928;27;20327;-81
2022/10/31 10:25:23;;;;;;;24.73;7.25;;;;;;;18.61;72.62;98727.69;5299450;27;20061;-81
2022/10/31 10:28:04;;;;;;;16.33;6.72;;;;;;;18.81;71.47;98722.97;5280366;27;20057;-81
2022/10/31 10:30:50;;;;;;;16.35;6.37;;;;;;;19.20;70.70;98724.72;5280618;27;20053;-81
2022/10/31 10:33:41;;;;;;;15.27;6.85;;;;;;;18.10;74.10;98724.00;5299393;27;20059;-81
2022/10/31 10:36:17;;;;;;;32.20;7.57;;;;;;;18.86;72.02;98716.50;5299338;27;20065;-81
2022/10/31 10:38:51;;;;;;;33.67;7.40;;;;;;;19.26;70.91;98714.69;5299770;27;20057;-81
2022/10/31 10:41:22;;;;;;;34.00;8.02;;;;;;;20.13;67.10;98724.38;5279992;27;20424;-81
2022/10/31 10:43:50;;;;;;;27.85;6.75;;;;;;;20.14;66.65;98722.59;5299889;27;20046;-81
2022/10/31 10:49:20;;;;;;;21.80;7.10;;;;;;;19.56;69.73;98713.53;5299718;27;20061;-81
2022/10/31 10:52:21;;;;;;;35.40;7.68;;;;;;;20.38;67.60;98717.38;5299919;27;20079;-81
2022/10/31 10:55:27;;;;;;;20.25;7.25;;;;;;;20.82;64.23;98721.19;5299006;27;20049;-81
2022/10/31 10:58:06;;;;;;;20.67;6.45;;;;;;;21.23;63.80;98711.06;5299592;27;20065;-81
2022/10/31 11:00:40;;;;;;;32.10;6.85;;;;;;;20.38;66.78;98712.97;5279980;27;20065;-81
2022/10/31 11:03:08;;;;;;;17.17;6.37;;;;;;;21.06;64.09;98711.50;5280514;27;20049;-81
2022/10/31 11:05:54;;;;;;;13.38;6.12;;;;;;;21.19;63.96;98714.88;5299442;27;20045;-81
2022/10/31 11:08:28;;;;;;;13.62;6.55;;;;;;;21.40;62.03;98712.44;5299375;27;20057;-81
2022/10/31 11:11:16;;;;;;;12.55;6.30;;;;;;;21.39;61.97;98707.31;5299879;27;20062;-81
2022/10/31 11:13:49;;;;;;;13.10;6.62;;;;;;;22.11;58.86;98703.34;5299479;27;20049;-81
2022/10/31 11:16:32;;;;;;;16.60;6.90;;;;;;;20.36;66.25;98704.38;5279693;27;20105;-81
2022/10/31 11:19:12;;;;;;;13.05;6.43;;;;;;;20.70;65.07;98694.91;5281455;27;20065;-81
2022/10/31 11:21:39;;;;;;;13.43;6.35;;;;;;;21.05;65.26;98702.78;5299268;27;20061;-81
2022/10/31 11:24:09;;;;;;;12.75;6.30;;;;;;;22.27;59.32;98707.41;5299730;27;20064;-81
2022/10/31 11:26:40;;;;;;;14.48;6.95;;;;;;;22.01;59.38;98699.78;5299634;27;20062;-81
2022/10/31 11:29:21;;;;;;;14.35;6.72;;;;;;;20.41;64.69;98694.38;5279819;27;20071;-81
2022/10/31 11:31:51;;;;;;;13.93;7.32;;;;;;;20.40;66.17;98695.34;5299837;27;20102;-81
2022/10/31 11:34:37;;;;;;;14.90;7.82;;;;;;;19.86;67.12;98692.25;5299622;27;20049;-81
2022/10/31 11:37:16;;;;;;;15.82;7.95;;;;;;;21.75;60.73;98698.37;5299154;27;20046;-81
2022/10/31 11:39:52;;;;;;;17.50;8.43;;;;;;;22.52;58.05;98688.69;5280551;27;20430;-81
2022/10/31 11:42:25;;;;;;;13.90;7.40;;;;;;;22.20;59.33;98699.16;5299742;27;20072;-81
2022/10/31 11:44:54;;;;;;;16.92;8.32;;;;;;;21.40;63.20;98690.59;5299280;27;20071;-81
2022/10/31 11:47:28;;;;;;;15.13;7.65;;;;;;;21.84;60.48;98685.34;5299575;27;20045;-81